Time;durP1;ratioP1;P1;durP2;ratioP2;P2;SDS_P1;SDS_P2;PMS_P1;PMS_P2;Temp;Humidity;BMP_temperature;BMP_pressure;BME280_temperature;BME280_humidity;BME280_pressure;Samples;Min_cycle;Max_cycle;Signal;HPM_P1;HPM_P2
2022/05/14 00:01:21;;;;;;;16.65;11.57;;;;;;;20.26;58.18;100254.09;5035134;28;20040;-80
2022/05/14 00:03:47;;;;;;;14.07;10.73;;;;;;;20.19;57.46;100200.19;5036191;28;20140;-81
2022/05/14 00:06:19;;;;;;;18.20;10.90;;;;;;;20.20;58.00;100242.75;5034805;28;20768;-80
2022/05/14 00:08:46;;;;;;;15.73;10.80;;;;;;;20.14;58.23;100235.03;5036224;28;20051;-81
2022/05/14 00:14:03;;;;;;;14.70;9.18;;;;;;;19.98;59.07;100257.91;5023370;28;20048;-79
2022/05/14 00:16:31;;;;;;;19.80;10.00;;;;;;;20.16;57.89;100221.66;5035669;28;20051;-81
2022/05/14 00:18:59;;;;;;;16.33;10.15;;;;;;;20.38;58.14;100246.44;5035050;28;20056;-81
2022/05/14 00:21:24;;;;;;;22.67;9.25;;;;;;;20.41;57.63;100235.63;5018562;28;20094;-81
2022/05/14 00:23:52;;;;;;;26.85;9.32;;;;;;;19.97;59.52;100235.75;5036367;28;20044;-82
2022/05/14 00:26:19;;;;;;;15.60;8.63;;;;;;;20.17;59.44;100240.22;5015060;28;20686;-82
2022/05/14 00:28:46;;;;;;;9.98;6.70;;;;;;;20.13;59.95;100232.41;5013881;28;20132;-79
2022/05/14 00:31:12;;;;;;;14.18;7.18;;;;;;;20.34;59.95;100225.31;5039114;28;20044;-81
2022/05/14 00:33:38;;;;;;;11.23;6.68;;;;;;;20.43;60.13;100225.75;5039950;28;20087;-81
2022/05/14 00:36:05;;;;;;;12.20;5.07;;;;;;;20.32;60.31;100235.16;5042084;28;20156;-80
2022/05/14 00:38:34;;;;;;;9.82;5.75;;;;;;;20.33;60.64;100236.91;5012003;28;20081;-79
2022/05/14 00:41:03;;;;;;;9.68;4.88;;;;;;;20.27;60.95;100218.50;5036408;28;20198;-79
2022/05/14 00:43:31;;;;;;;17.67;5.18;;;;;;;20.02;62.18;100216.91;5037602;28;20129;-81
2022/05/14 00:46:15;;;;;;;9.48;4.63;;;;;;;20.09;62.32;100226.38;5020168;28;20045;-81
2022/05/14 00:48:47;;;;;;;7.03;4.68;;;;;;;20.21;62.50;100214.31;5038672;28;20102;-81
2022/05/14 00:51:18;;;;;;;6.97;4.65;;;;;;;20.08;62.30;100213.09;5022666;28;20025;-81
2022/05/14 00:53:49;;;;;;;7.90;5.07;;;;;;;20.12;62.54;100209.38;5038187;28;20045;-81
2022/05/14 00:56:20;;;;;;;8.15;4.65;;;;;;;20.15;62.13;100196.78;5039891;28;20133;-82
2022/05/14 00:58:56;;;;;;;14.25;4.82;;;;;;;19.86;62.80;100171.41;5018119;28;20367;-82
2022/05/14 01:01:21;;;;;;;8.00;5.05;;;;;;;19.74;64.29;100211.88;5025634;28;20050;-81
2022/05/14 01:03:47;;;;;;;14.35;4.68;;;;;;;19.81;64.11;100210.69;5000515;28;20050;-80
2022/05/14 01:06:17;;;;;;;9.25;4.18;;;;;;;19.54;64.20;100162.91;5017139;28;20033;-79
2022/05/14 01:08:44;;;;;;;8.75;3.95;;;;;;;19.95;63.74;100205.66;4989245;28;20049;-79
2022/05/14 01:11:12;;;;;;;7.30;4.50;;;;;;;19.99;64.70;100211.69;5015337;28;20079;-80
2022/05/14 01:13:38;;;;;;;8.23;4.65;;;;;;;19.90;64.28;100212.97;5016415;28;20136;-80
2022/05/14 01:16:06;;;;;;;9.57;4.35;;;;;;;19.63;64.63;100177.66;5016109;28;20057;-81
2022/05/14 01:18:36;;;;;;;9.38;3.80;;;;;;;19.75;65.06;100214.44;4993196;28;20044;-80
2022/05/14 01:21:27;;;;;;;6.55;4.25;;;;;;;19.52;64.99;100175.44;5017534;28;20068;-81
2022/05/14 01:26:56;;;;;;;11.88;3.90;;;;;;;19.75;65.40;100216.25;5005126;28;20071;-80
2022/05/14 01:29:26;;;;;;;4.30;3.13;;;;;;;19.39;65.98;100199.00;5015929;28;20037;-80
2022/05/14 01:31:55;;;;;;;8.68;4.03;;;;;;;19.57;65.53;100188.53;5020001;28;20549;-80
2022/05/14 01:34:44;;;;;;;10.02;4.25;;;;;;;19.58;65.83;100203.59;5002833;28;20051;-79
2022/05/14 01:37:10;;;;;;;6.03;3.72;;;;;;;19.26;66.03;100155.19;5016587;28;20148;-80
2022/05/14 01:39:36;;;;;;;12.45;3.95;;;;;;;19.49;66.25;100174.69;5007943;28;20051;-81
2022/05/14 01:42:06;;;;;;;5.03;3.53;;;;;;;19.59;66.24;100186.69;5018953;28;20025;-80
2022/05/14 01:44:42;;;;;;;6.35;3.15;;;;;;;19.67;66.51;100181.06;5005440;28;20076;-80
2022/05/14 01:47:09;;;;;;;8.02;4.82;;;;;;;19.49;66.51;100167.56;5004943;28;20045;-80
2022/05/14 01:49:35;;;;;;;7.50;3.58;;;;;;;19.10;67.17;100144.28;5022120;28;20327;-81
2022/05/14 01:52:01;;;;;;;9.25;3.90;;;;;;;19.20;67.46;100166.09;5013970;28;20084;-80
2022/05/14 01:54:27;;;;;;;4.95;3.53;;;;;;;19.21;67.07;100135.03;5003755;28;20034;-81
2022/05/14 01:56:53;;;;;;;14.15;4.53;;;;;;;19.07;68.18;100160.38;5004832;28;20116;-79
2022/05/14 01:59:24;;;;;;;11.73;4.15;;;;;;;19.26;67.98;100164.97;5017778;28;20625;-79
2022/05/14 02:01:56;;;;;;;8.05;4.00;;;;;;;19.18;68.33;100174.13;5034037;28;20094;-81
2022/05/14 02:04:22;;;;;;;8.73;4.22;;;;;;;18.97;68.58;100159.00;5036558;28;20148;-81
2022/05/14 02:06:50;;;;;;;9.73;4.78;;;;;;;19.47;67.52;100174.75;5019545;28;20454;-80
2022/05/14 02:09:16;;;;;;;5.63;4.05;;;;;;;19.19;68.47;100175.00;5027040;28;20469;-81
2022/05/14 02:11:43;;;;;;;9.80;4.13;;;;;;;18.90;68.55;100133.59;5042403;28;20052;-81
2022/05/14 02:14:12;;;;;;;8.30;4.30;;;;;;;19.19;68.59;100159.03;5028553;28;20456;-81
2022/05/14 02:16:38;;;;;;;7.50;4.03;;;;;;;19.17;68.56;100177.72;5029350;28;20044;-80
2022/05/14 02:19:04;;;;;;;11.50;5.28;;;;;;;18.80;69.63;100172.97;5041597;28;20049;-81
2022/05/14 02:21:32;;;;;;;13.30;5.28;;;;;;;18.76;70.15;100166.88;5012607;28;20072;-82
2022/05/14 02:23:59;;;;;;;7.30;4.60;;;;;;;19.13;69.28;100177.91;5041231;28;20036;-81
2022/05/14 02:26:28;;;;;;;6.05;3.88;;;;;;;18.99;69.74;100167.81;5036824;28;20125;-81
2022/05/14 02:28:53;;;;;;;12.52;4.20;;;;;;;19.13;69.23;100175.25;5041863;28;20053;-80
2022/05/14 02:31:19;;;;;;;6.03;3.90;;;;;;;19.01;69.67;100189.91;5029513;28;20084;-81
2022/05/14 02:33:45;;;;;;;9.10;4.50;;;;;;;18.37;70.81;100147.94;5017166;28;20119;-82
2022/05/14 02:36:11;;;;;;;13.10;4.57;;;;;;;18.59;71.69;100182.56;5041831;28;20041;-81
2022/05/14 02:38:38;;;;;;;6.20;4.68;;;;;;;18.29;72.90;100201.34;5007321;28;20626;-81
2022/05/14 02:41:06;;;;;;;7.22;4.65;;;;;;;18.26;72.97;100179.31;5042012;28;20590;-81
2022/05/14 02:43:33;;;;;;;9.95;4.45;;;;;;;18.23;73.14;100180.28;5039689;28;20146;-82
2022/05/14 02:46:05;;;;;;;7.28;4.93;;;;;;;18.23;73.09;100180.28;5038220;28;20068;-82
2022/05/14 02:48:34;;;;;;;6.70;5.53;;;;;;;18.24;73.95;100210.38;5042123;28;20118;-82
2022/05/14 02:51:03;;;;;;;7.25;4.28;;;;;;;18.10;73.90;100179.88;5043099;28;20081;-84
2022/05/14 02:53:31;;;;;;;11.43;4.78;;;;;;;18.21;74.10;100190.09;5039016;28;20531;-83
2022/05/14 02:55:57;;;;;;;6.10;4.72;;;;;;;17.90;74.87;100164.63;5012791;28;20737;-83
2022/05/14 03:01:08;;;;;;;7.88;3.58;;;;;;;18.57;73.17;100184.41;5036544;28;20059;-80
2022/05/14 03:03:35;;;;;;;7.68;4.53;;;;;;;18.51;73.43;100203.22;5023388;28;20053;-79
2022/05/14 03:06:02;;;;;;;10.20;4.88;;;;;;;18.20;74.23;100193.69;5021055;28;20037;-79
2022/05/14 03:08:29;;;;;;;8.63;3.47;;;;;;;18.27;74.34;100219.13;5007038;28;20088;-80
2022/05/14 03:10:55;;;;;;;8.63;4.60;;;;;;;18.34;74.22;100211.81;4998540;28;20382;-79
2022/05/14 03:13:24;;;;;;;6.32;3.75;;;;;;;17.80;75.30;100187.06;4987940;28;20596;-80
2022/05/14 03:15:53;;;;;;;16.67;5.15;;;;;;;18.41;74.57;100212.47;5002604;28;20045;-80
2022/05/14 03:18:21;;;;;;;11.60;4.18;;;;;;;18.49;73.97;100213.03;5002438;28;20048;-80
2022/05/14 03:20:51;;;;;;;5.90;3.28;;;;;;;18.35;74.43;100218.84;5019358;28;20068;-80
2022/05/14 03:23:17;;;;;;;6.32;3.75;;;;;;;18.13;75.13;100222.25;4974610;28;20054;-80
2022/05/14 03:25:42;;;;;;;24.67;4.72;;;;;;;18.26;74.95;100216.50;4996670;28;20510;-80
2022/05/14 03:28:10;;;;;;;6.35;4.65;;;;;;;18.41;74.65;100220.44;5010543;28;20064;-80
2022/05/14 03:30:36;;;;;;;19.20;5.68;;;;;;;18.44;74.51;100217.66;4986517;28;20045;-80
2022/05/14 03:33:02;;;;;;;8.70;3.92;;;;;;;18.55;73.98;100220.81;5007234;28;20484;-80
2022/05/14 03:35:28;;;;;;;10.05;5.32;;;;;;;18.44;74.33;100202.56;4999164;28;20057;-80
2022/05/14 03:37:55;;;;;;;15.18;4.80;;;;;;;18.54;74.86;100232.34;4999080;28;20046;-80
2022/05/14 03:40:20;;;;;;;9.50;5.47;;;;;;;18.53;73.64;100204.03;5004242;28;20054;-79
2022/05/14 03:42:46;;;;;;;7.45;5.32;;;;;;;18.58;74.01;100251.72;5004027;28;20068;-79
2022/05/14 03:45:12;;;;;;;9.50;5.40;;;;;;;18.50;74.48;100231.59;5027287;28;20040;-81
2022/05/14 03:47:38;;;;;;;6.90;4.60;;;;;;;18.62;74.32;100246.22;5018649;28;20678;-82
2022/05/14 03:50:04;;;;;;;12.25;5.45;;;;;;;18.25;74.85;100212.97;5008963;28;20650;-81
2022/05/14 03:52:33;;;;;;;8.18;5.07;;;;;;;18.38;74.83;100212.53;5018191;28;20058;-81
2022/05/14 03:54:59;;;;;;;10.00;5.03;;;;;;;18.70;74.63;100254.78;5019861;28;20044;-80
2022/05/14 03:57:28;;;;;;;23.27;5.15;;;;;;;18.11;75.81;100223.22;5020150;28;20389;-79
2022/05/14 04:00:03;;;;;;;7.57;5.57;;;;;;;18.49;75.29;100259.06;5010035;28;20397;-79
2022/05/14 04:02:31;;;;;;;8.57;4.57;;;;;;;18.27;75.09;100195.22;5031089;28;20421;-81
2022/05/14 04:04:57;;;;;;;11.63;6.03;;;;;;;18.33;74.77;100223.34;5032130;28;20055;-80
2022/05/14 04:07:23;;;;;;;12.18;5.05;;;;;;;18.70;74.61;100265.41;5038384;28;20053;-80
2022/05/14 04:09:49;;;;;;;9.68;5.18;;;;;;;18.59;74.05;100222.44;5019237;28;20065;-80
2022/05/14 04:12:15;;;;;;;15.77;5.43;;;;;;;18.87;74.66;100264.84;5033614;28;20068;-81
2022/05/14 04:14:44;;;;;;;9.70;5.30;;;;;;;18.57;74.31;100245.53;5038164;28;20055;-78
2022/05/14 04:17:11;;;;;;;13.98;4.55;;;;;;;18.99;73.70;100274.19;5034036;28;20184;-80
2022/05/14 04:19:38;;;;;;;14.38;5.30;;;;;;;18.94;73.98;100265.47;5025717;28;20051;-80
2022/05/14 04:22:04;;;;;;;13.80;6.45;;;;;;;18.83;73.41;100233.13;5018361;28;20044;-79
2022/05/14 04:24:30;;;;;;;13.18;6.32;;;;;;;18.86;74.01;100276.41;5034838;28;20064;-79
2022/05/14 04:26:58;;;;;;;10.00;5.15;;;;;;;18.93;73.81;100283.22;5019300;28;20154;-80
2022/05/14 04:29:25;;;;;;;18.95;5.30;;;;;;;18.83;73.65;100299.59;5012075;28;20048;-78
2022/05/14 04:31:51;;;;;;;28.65;6.65;;;;;;;19.02;73.03;100276.72;4999517;28;20501;-78
2022/05/14 04:34:20;;;;;;;11.35;5.25;;;;;;;18.72;74.01;100307.91;5023661;28;20068;-79
2022/05/14 04:36:46;;;;;;;8.30;5.53;;;;;;;19.10;72.95;100295.91;5037736;28;20048;-79
2022/05/14 04:39:15;;;;;;;13.10;4.70;;;;;;;19.30;72.55;100279.19;5036825;28;20108;-81
2022/05/14 04:41:40;;;;;;;18.35;5.68;;;;;;;19.34;71.78;100278.16;5033173;28;20624;-82
2022/05/14 04:44:07;;;;;;;9.60;5.00;;;;;;;19.60;72.23;100298.44;5036999;28;20043;-82
2022/05/14 04:46:35;;;;;;;8.48;4.63;;;;;;;19.42;71.43;100261.03;5031237;28;20041;-79
2022/05/14 04:49:02;;;;;;;32.90;4.95;;;;;;;19.66;71.14;100289.34;5038194;28;20051;-79
2022/05/14 04:51:28;;;;;;;16.02;5.03;;;;;;;19.83;70.25;100299.38;5036448;28;20044;-79
2022/05/14 04:53:54;;;;;;;20.15;4.75;;;;;;;19.90;69.45;100307.94;5041534;28;20112;-79
2022/05/14 04:56:20;;;;;;;10.05;5.53;;;;;;;19.98;69.90;100309.38;5040769;28;20508;-80
2022/05/14 04:58:47;;;;;;;13.48;5.35;;;;;;;19.94;69.33;100312.22;5027582;28;20045;-79
2022/05/14 05:01:16;;;;;;;11.20;5.47;;;;;;;19.36;69.20;100275.41;5014285;28;20049;-79
2022/05/14 05:03:45;;;;;;;19.45;6.18;;;;;;;19.55;69.57;100319.06;5041179;28;20072;-79
2022/05/14 05:06:14;;;;;;;8.43;4.50;;;;;;;19.56;69.75;100323.44;5019709;28;20045;-81
2022/05/14 05:08:40;;;;;;;9.32;4.72;;;;;;;19.66;68.83;100341.72;5022606;28;20037;-81
2022/05/14 05:11:10;;;;;;;9.38;5.68;;;;;;;19.76;68.60;100311.16;5021466;28;20767;-81
2022/05/14 05:13:43;;;;;;;13.68;5.35;;;;;;;20.11;67.62;100320.41;5035244;28;20159;-81
2022/05/14 05:16:15;;;;;;;10.40;5.28;;;;;;;20.57;65.50;100336.31;5037717;28;20065;-80
2022/05/14 05:18:42;;;;;;;10.30;5.47;;;;;;;20.50;66.20;100327.66;5012646;28;20056;-79
2022/05/14 05:21:08;;;;;;;9.93;5.63;;;;;;;20.91;65.37;100325.06;5024357;28;20033;-79
2022/05/14 05:23:35;;;;;;;9.02;4.68;;;;;;;21.17;64.15;100334.56;5020960;28;20779;-80
2022/05/14 05:26:07;;;;;;;11.13;5.05;;;;;;;21.29;63.05;100327.78;5038509;28;20138;-80
2022/05/14 05:28:34;;;;;;;10.57;5.55;;;;;;;21.16;62.19;100299.91;5039410;28;20076;-80
2022/05/14 05:31:01;;;;;;;8.18;5.05;;;;;;;21.28;62.09;100313.59;5043243;28;20521;-80
2022/05/14 05:33:28;;;;;;;18.08;6.00;;;;;;;21.61;59.88;100339.69;5021416;28;20033;-80
2022/05/14 05:35:56;;;;;;;10.93;4.97;;;;;;;21.36;59.14;100309.69;5027002;28;20044;-81
2022/05/14 05:38:23;;;;;;;12.45;5.82;;;;;;;21.08;60.18;100318.97;5022809;28;20056;-80
2022/05/14 05:40:52;;;;;;;9.10;6.20;;;;;;;21.34;60.06;100316.91;5039954;28;20062;-79
2022/05/14 05:43:18;;;;;;;8.43;5.20;;;;;;;21.70;59.82;100299.19;5024154;28;20504;-79
2022/05/14 05:45:50;;;;;;;11.88;5.82;;;;;;;22.20;59.77;100358.25;5043887;28;20053;-78
2022/05/14 05:48:16;;;;;;;9.50;4.97;;;;;;;22.21;58.96;100331.47;5011616;28;20098;-80
2022/05/14 05:50:44;;;;;;;7.80;5.25;;;;;;;22.48;57.69;100364.00;5037255;28;20468;-81
2022/05/14 05:53:10;;;;;;;10.93;5.03;;;;;;;22.53;57.47;100363.75;5013995;28;20369;-80
2022/05/14 05:58:21;;;;;;;7.57;5.53;;;;;;;22.80;56.88;100365.97;5042661;28;20075;-82
2022/05/14 06:00:48;;;;;;;10.57;7.07;;;;;;;22.83;57.72;100349.75;5020319;28;20052;-81
2022/05/14 06:03:14;;;;;;;13.27;5.90;;;;;;;22.81;57.39;100365.03;5040308;28;20080;-79
2022/05/14 06:05:42;;;;;;;8.40;6.07;;;;;;;22.97;58.12;100365.97;5036045;28;20056;-80
2022/05/14 06:08:15;;;;;;;16.75;6.32;;;;;;;22.70;57.96;100381.63;5029429;28;20060;-81
2022/05/14 06:10:41;;;;;;;12.77;5.72;;;;;;;22.68;57.16;100352.28;5004801;28;20134;-80
2022/05/14 06:13:11;;;;;;;15.88;5.93;;;;;;;22.99;55.46;100349.84;5014219;28;20134;-81
2022/05/14 06:15:37;;;;;;;8.48;5.22;;;;;;;23.23;55.87;100382.50;5037928;28;20585;-79
2022/05/14 06:18:04;;;;;;;8.07;5.57;;;;;;;23.08;55.23;100385.03;5038752;28;20052;-80
2022/05/14 06:20:30;;;;;;;10.00;6.07;;;;;;;23.11;54.57;100347.41;5025729;28;20040;-80
2022/05/14 06:22:57;;;;;;;10.88;4.65;;;;;;;23.53;55.64;100391.56;5023944;28;20061;-79
2022/05/14 06:25:25;;;;;;;9.18;5.70;;;;;;;22.80;54.88;100388.22;5015698;28;20060;-79
2022/05/14 06:27:50;;;;;;;9.02;5.13;;;;;;;23.32;54.60;100388.22;5034546;28;20045;-78
2022/05/14 06:30:16;;;;;;;12.27;5.55;;;;;;;23.58;55.17;100373.44;5036644;28;20051;-79
2022/05/14 06:32:43;;;;;;;13.63;6.63;;;;;;;23.51;56.43;100373.84;5038973;28;20040;-80
2022/05/14 06:35:10;;;;;;;7.38;5.15;;;;;;;23.62;53.99;100382.13;5018528;28;20056;-81
2022/05/14 06:37:36;;;;;;;11.75;6.30;;;;;;;23.24;54.62;100400.28;5031776;28;20055;-80
2022/05/14 06:40:06;;;;;;;9.98;5.50;;;;;;;23.42;54.78;100382.38;5020211;28;20184;-81
2022/05/14 06:42:34;;;;;;;14.02;6.22;;;;;;;23.61;54.71;100377.75;5037909;28;20140;-81
2022/05/14 06:45:04;;;;;;;9.02;5.30;;;;;;;23.57;54.70;100369.00;5039877;28;20025;-79
2022/05/14 06:47:39;;;;;;;12.57;5.75;;;;;;;23.66;53.04;100342.66;5021632;28;20092;-81
2022/05/14 06:50:06;;;;;;;8.52;4.60;;;;;;;23.83;53.33;100356.00;5034465;28;20208;-78
2022/05/14 06:52:37;;;;;;;8.80;4.93;;;;;;;23.95;52.31;100365.16;5016235;28;20045;-80
2022/05/14 06:55:07;;;;;;;9.80;4.93;;;;;;;23.67;52.32;100331.88;5028477;28;20041;-80
2022/05/14 06:57:36;;;;;;;7.70;5.18;;;;;;;23.93;51.83;100375.16;5032785;28;20026;-81
2022/05/14 07:00:03;;;;;;;8.38;4.50;;;;;;;23.89;51.90;100353.00;5036750;28;20029;-79
2022/05/14 07:02:31;;;;;;;11.25;5.10;;;;;;;24.05;51.74;100379.81;5032194;28;20052;-80
2022/05/14 07:07:45;;;;;;;9.20;4.47;;;;;;;24.15;52.20;100375.63;5033870;28;20152;-81
2022/05/14 07:10:11;;;;;;;6.63;3.70;;;;;;;24.16;51.17;100372.03;5027514;28;20052;-80
2022/05/14 07:12:37;;;;;;;28.67;7.30;;;;;;;24.16;51.92;100373.81;5038967;28;20076;-80
2022/05/14 07:15:04;;;;;;;10.05;6.43;;;;;;;24.11;51.85;100357.13;5034096;28;20425;-79
2022/05/14 07:17:31;;;;;;;7.40;5.07;;;;;;;24.71;51.94;100393.94;5016979;28;20104;-78
2022/05/14 07:20:00;;;;;;;15.18;5.57;;;;;;;24.71;51.29;100389.41;5018157;28;20072;-80
2022/05/14 07:22:26;;;;;;;9.27;5.47;;;;;;;24.52;50.41;100381.59;5014716;28;20037;-80
2022/05/14 07:24:52;;;;;;;9.25;4.45;;;;;;;24.57;49.99;100394.75;5018137;28;20130;-74
2022/05/14 07:27:18;;;;;;;7.97;5.18;;;;;;;24.50;50.11;100350.44;5022973;28;20548;-76
2022/05/14 07:29:45;;;;;;;17.33;6.28;;;;;;;25.19;49.84;100391.94;5018550;28;20125;-77
2022/05/14 07:32:14;;;;;;;12.23;6.97;;;;;;;24.78;50.14;100360.41;5035711;28;20122;-79
2022/05/14 07:34:40;;;;;;;18.67;10.43;;;;;;;24.81;50.79;100389.72;5004979;28;20053;-78
2022/05/14 07:37:13;;;;;;;23.77;7.80;;;;;;;24.90;49.87;100391.88;5012855;28;20046;-76
2022/05/14 07:39:46;;;;;;;;;;;;;;;24.95;47.90;100379.03;5033679;28;20059;-78
2022/05/14 07:42:23;;;;;;;19.20;6.32;;;;;;;24.31;48.93;100297.84;5035779;28;19920;-77
2022/05/14 07:44:57;;;;;;;19.90;6.15;;;;;;;24.66;48.38;100358.47;5037413;28;20052;-77
2022/05/14 07:47:25;;;;;;;8.05;4.45;;;;;;;24.65;48.28;100360.25;5025541;28;20052;-78
2022/05/14 07:49:52;;;;;;;7.18;4.22;;;;;;;25.11;49.52;100397.75;4998748;28;20108;-79
2022/05/14 07:52:18;;;;;;;11.98;5.95;;;;;;;25.27;49.08;100387.84;5017028;28;20064;-78
2022/05/14 07:54:45;;;;;;;9.30;4.38;;;;;;;25.47;48.04;100391.09;5020833;28;20049;-78
2022/05/14 07:57:11;;;;;;;8.85;4.53;;;;;;;25.62;47.23;100383.91;5032932;28;20037;-78
2022/05/14 07:59:37;;;;;;;18.65;4.70;;;;;;;25.54;47.99;100392.44;5025503;28;20053;-78
2022/05/14 08:02:05;;;;;;;6.57;4.85;;;;;;;25.56;45.76;100386.97;5015872;28;20050;-78
2022/05/14 08:04:33;;;;;;;30.42;6.18;;;;;;;25.39;47.00;100347.75;5014780;28;20387;-78
2022/05/14 08:06:59;;;;;;;8.07;4.43;;;;;;;25.51;47.38;100344.28;4993027;28;20079;-78
2022/05/14 08:09:31;;;;;;;8.77;5.03;;;;;;;26.00;47.17;100383.31;5005918;28;20055;-76
2022/05/14 08:11:59;;;;;;;7.40;4.25;;;;;;;25.84;45.93;100351.13;5018571;28;20044;-77
2022/05/14 08:14:25;;;;;;;14.95;4.93;;;;;;;26.39;45.68;100390.59;5002582;28;20046;-78
2022/05/14 08:16:53;;;;;;;9.95;5.20;;;;;;;26.50;44.51;100353.06;4997991;28;20088;-78
2022/05/14 08:19:19;;;;;;;12.75;5.60;;;;;;;26.95;44.93;100395.84;5020289;28;20084;-78
2022/05/14 08:24:31;;;;;;;13.98;5.35;;;;;;;26.86;42.74;100391.09;4986843;28;20045;-78
2022/05/14 08:27:04;;;;;;;7.22;4.20;;;;;;;26.76;44.15;100395.34;5005623;28;20034;-78
2022/05/14 08:29:32;;;;;;;10.48;7.45;;;;;;;26.41;44.46;100385.09;5018264;28;20361;-80
2022/05/14 08:31:57;;;;;;;8.32;4.60;;;;;;;26.56;45.01;100385.94;5015945;28;20053;-79
2022/05/14 08:34:24;;;;;;;33.13;5.70;;;;;;;26.48;43.97;100387.28;5019130;28;20053;-78
2022/05/14 08:36:50;;;;;;;15.55;5.30;;;;;;;26.39;44.50;100352.06;5014017;28;20045;-78
2022/05/14 08:39:16;;;;;;;7.10;4.10;;;;;;;26.40;45.12;100383.38;4995497;28;20116;-78
2022/05/14 08:41:47;;;;;;;6.05;3.97;;;;;;;25.75;42.07;100349.91;5017496;28;20029;-78
2022/05/14 08:44:19;;;;;;;17.80;4.90;;;;;;;26.79;43.19;100387.94;5021139;28;20180;-78
2022/05/14 08:46:46;;;;;;;12.35;5.45;;;;;;;26.27;42.77;100389.59;4974674;28;20038;-80
2022/05/14 08:49:34;;;;;;;15.82;5.20;;;;;;;26.43;43.56;100391.25;4999521;28;21960;-78
2022/05/14 08:52:05;;;;;;;9.48;5.60;;;;;;;26.74;42.75;100384.72;5017070;28;20053;-79
2022/05/14 08:54:33;;;;;;;9.23;5.60;;;;;;;25.58;44.49;100374.31;5020293;28;20034;-78
2022/05/14 08:57:14;;;;;;;7.10;4.97;;;;;;;25.80;44.90;100345.13;5006580;28;20041;-78
2022/05/14 08:59:55;;;;;;;;;;;;;;;26.54;43.82;100342.97;5020497;28;20049;-78
2022/05/14 09:02:41;;;;;;;10.68;5.05;;;;;;;26.93;40.12;100389.69;5029016;28;19932;-79
2022/05/14 09:05:12;;;;;;;9.40;5.60;;;;;;;27.41;42.33;100344.13;5039820;28;20045;-78
2022/05/14 09:07:40;;;;;;;7.97;5.05;;;;;;;27.76;40.64;100335.31;5041596;28;20136;-77
2022/05/14 09:10:19;;;;;;;7.88;4.80;;;;;;;27.71;40.27;100373.41;5015060;28;20096;-79
2022/05/14 09:13:14;;;;;;;11.15;5.60;;;;;;;27.87;38.67;100370.50;5022159;28;20060;-78
2022/05/14 09:15:51;;;;;;;19.75;10.80;;;;;;;28.34;38.91;100373.34;5042307;28;20059;-78
2022/05/14 09:18:32;;;;;;;20.80;11.13;;;;;;;28.20;37.54;100369.00;5032398;28;20029;-78
2022/05/14 09:21:08;;;;;;;15.07;9.55;;;;;;;28.26;39.20;100368.53;5039769;28;20041;-78
2022/05/14 09:23:46;;;;;;;23.90;12.88;;;;;;;28.37;39.70;100365.00;5022765;28;20049;-78
2022/05/14 09:26:39;;;;;;;27.63;13.57;;;;;;;28.88;38.21;100370.16;5039902;28;20053;-78
2022/05/14 09:29:28;;;;;;;29.10;13.60;;;;;;;27.67;39.66;100371.03;5038175;28;20076;-78
2022/05/14 09:32:00;;;;;;;15.18;9.32;;;;;;;26.81;39.58;100374.34;5023016;28;20045;-79
2022/05/14 09:34:32;;;;;;;17.10;9.75;;;;;;;26.09;40.83;100382.72;5024619;28;20049;-79
2022/05/14 09:37:23;;;;;;;19.67;10.20;;;;;;;26.27;42.51;100386.00;5022525;28;20060;-80
2022/05/14 09:40:01;;;;;;;19.67;10.60;;;;;;;26.47;41.62;100377.47;5022176;28;20041;-78
2022/05/14 09:42:42;;;;;;;12.95;6.50;;;;;;;26.53;39.83;100344.78;5024583;28;20037;-77
2022/05/14 09:45:30;;;;;;;15.32;7.43;;;;;;;26.86;42.17;100383.00;5040951;28;20061;-78
2022/05/14 09:47:55;;;;;;;19.52;11.15;;;;;;;26.98;41.49;100375.91;5018851;28;20107;-78
2022/05/14 09:50:34;;;;;;;27.13;14.85;;;;;;;26.89;42.25;100375.56;5042732;28;20053;-78
2022/05/14 09:53:04;;;;;;;17.90;10.15;;;;;;;26.83;44.22;100378.69;5021757;28;20045;-77
2022/05/14 09:56:01;;;;;;;23.98;13.52;;;;;;;26.30;45.30;100335.56;5025332;28;22767;-77
2022/05/14 09:58:52;;;;;;;23.13;11.60;;;;;;;26.30;46.50;100384.00;5043246;28;20037;-78
2022/05/14 10:01:48;;;;;;;20.63;11.38;;;;;;;26.34;46.14;100376.59;5041717;28;20053;-77
2022/05/14 10:04:33;;;;;;;34.30;13.90;;;;;;;26.68;45.66;100374.34;5004869;28;20057;-77
2022/05/14 10:07:19;;;;;;;37.88;17.67;;;;;;;27.11;45.47;100372.25;5017049;28;20120;-79
2022/05/14 10:10:04;;;;;;;20.80;12.52;;;;;;;27.52;45.58;100368.50;5021928;28;20124;-78
2022/05/14 10:13:23;;;;;;;39.13;18.75;;;;;;;27.54;46.74;100371.09;5021147;28;20037;-77
2022/05/14 10:16:11;;;;;;;73.57;23.55;;;;;;;28.09;45.45;100367.06;5008873;28;20052;-78
2022/05/14 10:19:14;;;;;;;21.85;10.60;;;;;;;26.84;45.34;100344.53;5000237;28;20057;-77
2022/05/14 10:22:25;;;;;;;23.40;12.60;;;;;;;26.86;44.91;100373.09;5013399;28;20049;-79
2022/05/14 10:27:55;;;;;;;20.27;10.43;;;;;;;26.95;45.63;100375.16;5015852;28;20052;-80
2022/05/14 10:30:25;;;;;;;24.80;13.73;;;;;;;26.54;44.81;100340.28;5013942;28;20094;-78
2022/05/14 10:33:03;;;;;;;19.40;9.75;;;;;;;27.17;45.02;100362.88;5009438;28;20536;-80
2022/05/14 10:35:41;;;;;;;35.63;14.13;;;;;;;27.57;43.78;100347.44;5010785;28;20120;-80
2022/05/14 10:38:14;;;;;;;44.20;17.77;;;;;;;28.53;42.43;100362.06;5019297;28;20056;-80
2022/05/14 10:40:53;;;;;;;32.40;14.00;;;;;;;28.35;42.63;100365.16;5018366;28;20052;-80
2022/05/14 10:43:57;;;;;;;40.58;15.80;;;;;;;27.86;41.24;100366.09;5013089;28;20076;-80
2022/05/14 10:46:32;;;;;;;5.22;4.68;;;;;;;28.11;42.74;100356.19;5017656;28;20064;-79
2022/05/14 10:49:24;;;;;;;46.08;19.65;;;;;;;28.24;42.41;100356.09;5010839;28;20152;-80
2022/05/14 10:51:53;;;;;;;;;;;;;;;27.92;41.76;100318.91;5008042;28;20037;-79
2022/05/14 10:54:23;;;;;;;16.13;9.90;;;;;;;27.28;45.25;100352.25;5007411;28;19921;-78
2022/05/14 10:57:14;;;;;;;10.18;6.63;;;;;;;27.26;45.13;100350.63;5015619;28;20037;-78
2022/05/14 10:59:44;;;;;;;24.90;14.93;;;;;;;27.23;44.16;100345.44;4997412;28;20091;-79
2022/05/14 11:02:28;;;;;;;32.78;16.10;;;;;;;28.15;42.29;100346.88;5018900;28;20045;-77
2022/05/14 11:04:56;;;;;;;15.30;9.07;;;;;;;27.56;42.49;100348.44;5020272;28;20114;-78
2022/05/14 11:07:31;;;;;;;13.25;7.30;;;;;;;27.82;42.64;100348.38;5033056;28;20075;-78
2022/05/14 11:10:18;;;;;;;16.23;8.80;;;;;;;27.75;42.19;100349.81;5031854;28;20131;-77
2022/05/14 11:12:46;;;;;;;15.90;8.60;;;;;;;27.39;44.16;100339.81;5037755;28;20111;-78
2022/05/14 11:15:29;;;;;;;8.75;4.78;;;;;;;26.98;42.76;100301.34;5038357;28;20043;-78
2022/05/14 11:18:10;;;;;;;11.80;5.93;;;;;;;27.06;46.18;100335.81;5037619;28;20041;-77
2022/05/14 11:20:38;;;;;;;15.70;8.63;;;;;;;27.13;41.87;100329.03;5031737;28;20272;-77
2022/05/14 11:23:14;;;;;;;14.93;7.93;;;;;;;27.13;42.35;100337.97;5036575;28;20049;-77
2022/05/14 11:25:41;;;;;;;20.70;5.25;;;;;;;26.68;42.16;100285.50;5023090;28;20040;-76
2022/05/14 11:28:19;;;;;;;6.63;4.22;;;;;;;25.98;42.15;100305.41;5038351;28;20094;-77
2022/05/14 11:30:55;;;;;;;13.10;4.90;;;;;;;26.68;42.06;100312.44;5030572;28;20057;-80
2022/05/14 11:33:31;;;;;;;15.35;5.30;;;;;;;26.94;41.60;100324.06;5034859;28;20029;-79
2022/05/14 11:36:15;;;;;;;23.02;11.10;;;;;;;26.97;41.83;100333.78;5038668;28;20032;-78
2022/05/14 11:38:45;;;;;;;27.27;12.27;;;;;;;27.68;42.27;100322.41;5012017;28;20546;-79
2022/05/14 11:41:36;;;;;;;19.60;7.30;;;;;;;27.16;41.58;100323.44;5036391;28;20139;-79
2022/05/14 11:44:06;;;;;;;20.42;8.23;;;;;;;27.41;40.69;100317.19;5037425;28;20047;-79
2022/05/14 11:46:48;;;;;;;18.15;8.60;;;;;;;27.02;40.99;100316.34;5035262;28;20045;-82
2022/05/14 11:49:28;;;;;;;19.98;11.23;;;;;;;27.25;41.20;100305.78;5035139;28;20040;-82
2022/05/14 11:52:31;;;;;;;32.42;15.63;;;;;;;27.29;40.18;100270.41;5025585;28;20255;-82
2022/05/14 11:55:16;;;;;;;28.17;12.88;;;;;;;27.91;40.17;100306.38;5030231;28;20071;-80
2022/05/14 11:58:24;;;;;;;17.67;9.30;;;;;;;27.78;39.30;100301.03;5034872;28;20174;-81